sensor_id;sensor_type;location;lat;lon;timestamp;P1;durP1;ratioP1;P2;durP2;ratioP2
29314;SDS011;16320;53.954;9.506;2023-07-02T00:02:52;14.15;;;3.83;;
29314;SDS011;16320;53.954;9.506;2023-07-02T00:05:57;19.13;;;4.30;;
29314;SDS011;16320;53.954;9.506;2023-07-02T00:09:02;16.60;;;4.50;;
29314;SDS011;16320;53.954;9.506;2023-07-02T00:12:07;15.15;;;4.40;;
29314;SDS011;16320;53.954;9.506;2023-07-02T00:15:12;14.45;;;4.20;;
29314;SDS011;16320;53.954;9.506;2023-07-02T00:18:17;10.48;;;3.75;;
29314;SDS011;16320;53.954;9.506;2023-07-02T00:21:22;15.50;;;4.50;;
29314;SDS011;16320;53.954;9.506;2023-07-02T00:24:31;11.40;;;4.75;;
29314;SDS011;16320;53.954;9.506;2023-07-02T00:27:37;18.42;;;4.72;;
29314;SDS011;16320;53.954;9.506;2023-07-02T00:30:41;13.80;;;4.65;;
29314;SDS011;16320;53.954;9.506;2023-07-02T00:33:49;18.38;;;5.22;;
29314;SDS011;16320;53.954;9.506;2023-07-02T00:36:54;13.40;;;4.72;;
29314;SDS011;16320;53.954;9.506;2023-07-02T00:39:59;8.80;;;4.88;;
29314;SDS011;16320;53.954;9.506;2023-07-02T00:43:03;15.55;;;5.93;;
29314;SDS011;16320;53.954;9.506;2023-07-02T00:46:07;16.38;;;5.82;;
29314;SDS011;16320;53.954;9.506;2023-07-02T00:49:12;15.02;;;4.95;;
29314;SDS011;16320;53.954;9.506;2023-07-02T00:52:17;13.80;;;5.65;;
29314;SDS011;16320;53.954;9.506;2023-07-02T00:55:24;12.65;;;5.40;;
29314;SDS011;16320;53.954;9.506;2023-07-02T00:58:29;13.55;;;5.30;;
29314;SDS011;16320;53.954;9.506;2023-07-02T01:01:33;16.70;;;5.97;;
29314;SDS011;16320;53.954;9.506;2023-07-02T01:04:42;16.83;;;5.82;;
29314;SDS011;16320;53.954;9.506;2023-07-02T01:07:53;12.80;;;5.80;;
29314;SDS011;16320;53.954;9.506;2023-07-02T01:10:57;17.92;;;6.75;;
29314;SDS011;16320;53.954;9.506;2023-07-02T01:14:08;13.15;;;6.55;;
29314;SDS011;16320;53.954;9.506;2023-07-02T01:17:15;11.35;;;6.18;;
29314;SDS011;16320;53.954;9.506;2023-07-02T01:20:23;18.42;;;7.05;;
29314;SDS011;16320;53.954;9.506;2023-07-02T01:23:29;14.80;;;6.35;;
29314;SDS011;16320;53.954;9.506;2023-07-02T01:26:34;19.35;;;7.00;;
29314;SDS011;16320;53.954;9.506;2023-07-02T01:29:40;15.55;;;5.72;;
29314;SDS011;16320;53.954;9.506;2023-07-02T01:32:48;16.70;;;7.45;;
29314;SDS011;16320;53.954;9.506;2023-07-02T01:35:53;18.23;;;7.50;;
29314;SDS011;16320;53.954;9.506;2023-07-02T01:38:57;23.17;;;7.68;;
29314;SDS011;16320;53.954;9.506;2023-07-02T01:45:21;30.23;;;9.85;;
29314;SDS011;16320;53.954;9.506;2023-07-02T01:48:26;25.60;;;10.23;;
29314;SDS011;16320;53.954;9.506;2023-07-02T01:51:31;32.55;;;11.45;;
29314;SDS011;16320;53.954;9.506;2023-07-02T01:54:36;32.47;;;10.55;;
29314;SDS011;16320;53.954;9.506;2023-07-02T01:57:44;29.80;;;11.93;;
29314;SDS011;16320;53.954;9.506;2023-07-02T02:00:48;28.63;;;11.25;;
29314;SDS011;16320;53.954;9.506;2023-07-02T02:03:53;25.23;;;10.93;;
29314;SDS011;16320;53.954;9.506;2023-07-02T02:06:57;24.90;;;11.05;;
29314;SDS011;16320;53.954;9.506;2023-07-02T02:10:02;38.05;;;12.10;;
29314;SDS011;16320;53.954;9.506;2023-07-02T02:13:10;27.42;;;12.75;;
29314;SDS011;16320;53.954;9.506;2023-07-02T02:16:15;32.75;;;14.50;;
29314;SDS011;16320;53.954;9.506;2023-07-02T02:19:19;38.60;;;13.68;;
29314;SDS011;16320;53.954;9.506;2023-07-02T02:22:24;27.95;;;13.45;;
29314;SDS011;16320;53.954;9.506;2023-07-02T02:25:29;33.22;;;13.98;;
29314;SDS011;16320;53.954;9.506;2023-07-02T02:28:34;33.65;;;14.75;;
29314;SDS011;16320;53.954;9.506;2023-07-02T02:31:39;35.90;;;15.18;;
29314;SDS011;16320;53.954;9.506;2023-07-02T02:34:44;39.17;;;15.05;;
29314;SDS011;16320;53.954;9.506;2023-07-02T02:37:48;45.05;;;14.35;;
29314;SDS011;16320;53.954;9.506;2023-07-02T02:40:54;47.03;;;14.13;;
29314;SDS011;16320;53.954;9.506;2023-07-02T02:43:58;35.15;;;13.63;;
29314;SDS011;16320;53.954;9.506;2023-07-02T02:47:03;51.50;;;15.70;;
29314;SDS011;16320;53.954;9.506;2023-07-02T02:50:09;43.05;;;15.55;;
29314;SDS011;16320;53.954;9.506;2023-07-02T02:53:17;43.47;;;15.43;;
29314;SDS011;16320;53.954;9.506;2023-07-02T02:56:22;39.40;;;14.80;;
29314;SDS011;16320;53.954;9.506;2023-07-02T02:59:27;41.88;;;13.32;;
29314;SDS011;16320;53.954;9.506;2023-07-02T03:02:32;44.72;;;13.73;;
29314;SDS011;16320;53.954;9.506;2023-07-02T03:05:37;41.88;;;14.05;;
29314;SDS011;16320;53.954;9.506;2023-07-02T03:08:42;37.53;;;13.85;;
29314;SDS011;16320;53.954;9.506;2023-07-02T03:11:47;44.78;;;12.90;;
29314;SDS011;16320;53.954;9.506;2023-07-02T03:14:52;34.63;;;13.85;;
29314;SDS011;16320;53.954;9.506;2023-07-02T03:18:00;38.03;;;14.90;;
29314;SDS011;16320;53.954;9.506;2023-07-02T03:21:05;45.38;;;15.32;;
29314;SDS011;16320;53.954;9.506;2023-07-02T03:24:09;41.22;;;15.55;;
29314;SDS011;16320;53.954;9.506;2023-07-02T03:27:17;41.38;;;15.43;;
29314;SDS011;16320;53.954;9.506;2023-07-02T03:30:22;39.33;;;16.70;;
29314;SDS011;16320;53.954;9.506;2023-07-02T03:33:26;52.42;;;15.90;;
29314;SDS011;16320;53.954;9.506;2023-07-02T03:36:31;41.92;;;16.05;;
29314;SDS011;16320;53.954;9.506;2023-07-02T03:39:35;49.88;;;18.45;;
29314;SDS011;16320;53.954;9.506;2023-07-02T03:42:40;41.08;;;16.38;;
29314;SDS011;16320;53.954;9.506;2023-07-02T03:45:44;46.97;;;17.17;;
29314;SDS011;16320;53.954;9.506;2023-07-02T03:48:48;41.75;;;17.02;;
29314;SDS011;16320;53.954;9.506;2023-07-02T03:51:53;39.15;;;17.25;;
29314;SDS011;16320;53.954;9.506;2023-07-02T03:54:58;49.38;;;18.58;;
29314;SDS011;16320;53.954;9.506;2023-07-02T03:58:03;46.53;;;17.67;;
29314;SDS011;16320;53.954;9.506;2023-07-02T04:01:08;48.35;;;18.42;;
29314;SDS011;16320;53.954;9.506;2023-07-02T04:04:13;47.75;;;18.00;;
29314;SDS011;16320;53.954;9.506;2023-07-02T04:07:18;43.88;;;18.23;;
29314;SDS011;16320;53.954;9.506;2023-07-02T04:10:22;44.03;;;17.00;;
29314;SDS011;16320;53.954;9.506;2023-07-02T04:13:27;53.38;;;19.08;;
29314;SDS011;16320;53.954;9.506;2023-07-02T04:16:32;51.70;;;18.02;;
29314;SDS011;16320;53.954;9.506;2023-07-02T04:19:37;42.97;;;17.17;;
29314;SDS011;16320;53.954;9.506;2023-07-02T04:22:41;56.25;;;17.65;;
29314;SDS011;16320;53.954;9.506;2023-07-02T04:25:45;49.03;;;17.77;;
29314;SDS011;16320;53.954;9.506;2023-07-02T04:29:10;52.97;;;17.70;;
29314;SDS011;16320;53.954;9.506;2023-07-02T04:32:15;50.63;;;16.75;;
29314;SDS011;16320;53.954;9.506;2023-07-02T04:35:19;62.72;;;17.40;;
29314;SDS011;16320;53.954;9.506;2023-07-02T04:38:27;81.22;;;20.13;;
29314;SDS011;16320;53.954;9.506;2023-07-02T04:41:31;67.45;;;20.45;;
29314;SDS011;16320;53.954;9.506;2023-07-02T04:44:37;68.25;;;19.25;;
29314;SDS011;16320;53.954;9.506;2023-07-02T04:47:42;60.95;;;18.52;;
29314;SDS011;16320;53.954;9.506;2023-07-02T04:50:50;61.28;;;19.17;;
29314;SDS011;16320;53.954;9.506;2023-07-02T04:53:54;65.47;;;18.52;;
29314;SDS011;16320;53.954;9.506;2023-07-02T04:56:58;57.72;;;18.77;;
29314;SDS011;16320;53.954;9.506;2023-07-02T05:00:03;53.45;;;18.80;;
29314;SDS011;16320;53.954;9.506;2023-07-02T05:03:12;72.07;;;19.08;;
29314;SDS011;16320;53.954;9.506;2023-07-02T05:06:17;71.03;;;20.83;;
29314;SDS011;16320;53.954;9.506;2023-07-02T05:09:21;74.38;;;21.77;;
29314;SDS011;16320;53.954;9.506;2023-07-02T05:12:26;68.75;;;20.10;;
29314;SDS011;16320;53.954;9.506;2023-07-02T05:15:32;63.03;;;19.17;;
29314;SDS011;16320;53.954;9.506;2023-07-02T05:18:37;75.63;;;20.10;;
29314;SDS011;16320;53.954;9.506;2023-07-02T05:21:41;83.78;;;20.50;;
29314;SDS011;16320;53.954;9.506;2023-07-02T05:24:50;77.50;;;21.92;;
29314;SDS011;16320;53.954;9.506;2023-07-02T05:27:57;66.75;;;20.33;;
29314;SDS011;16320;53.954;9.506;2023-07-02T05:31:01;70.32;;;19.35;;
29314;SDS011;16320;53.954;9.506;2023-07-02T05:34:06;70.53;;;21.00;;
29314;SDS011;16320;53.954;9.506;2023-07-02T05:37:10;78.97;;;19.80;;
29314;SDS011;16320;53.954;9.506;2023-07-02T05:40:15;73.57;;;22.13;;
29314;SDS011;16320;53.954;9.506;2023-07-02T05:43:20;69.93;;;20.70;;
29314;SDS011;16320;53.954;9.506;2023-07-02T05:46:25;59.60;;;20.38;;
29314;SDS011;16320;53.954;9.506;2023-07-02T05:49:30;67.63;;;20.80;;
29314;SDS011;16320;53.954;9.506;2023-07-02T05:52:35;68.78;;;20.27;;
29314;SDS011;16320;53.954;9.506;2023-07-02T05:55:40;73.88;;;21.60;;
29314;SDS011;16320;53.954;9.506;2023-07-02T05:58:48;67.55;;;19.73;;
29314;SDS011;16320;53.954;9.506;2023-07-02T06:01:55;67.07;;;20.60;;
29314;SDS011;16320;53.954;9.506;2023-07-02T06:05:00;60.30;;;20.95;;
29314;SDS011;16320;53.954;9.506;2023-07-02T06:08:09;77.10;;;21.40;;
29314;SDS011;16320;53.954;9.506;2023-07-02T06:11:13;59.45;;;19.50;;
29314;SDS011;16320;53.954;9.506;2023-07-02T06:18:32;72.28;;;21.00;;
29314;SDS011;16320;53.954;9.506;2023-07-02T06:21:40;59.47;;;18.40;;
29314;SDS011;16320;53.954;9.506;2023-07-02T06:24:44;68.47;;;20.05;;
29314;SDS011;16320;53.954;9.506;2023-07-02T06:27:49;65.60;;;18.92;;
29314;SDS011;16320;53.954;9.506;2023-07-02T06:30:54;56.47;;;17.23;;
29314;SDS011;16320;53.954;9.506;2023-07-02T06:33:59;49.53;;;15.52;;
29314;SDS011;16320;53.954;9.506;2023-07-02T06:37:04;55.42;;;14.40;;
29314;SDS011;16320;53.954;9.506;2023-07-02T06:40:10;56.75;;;13.27;;
29314;SDS011;16320;53.954;9.506;2023-07-02T06:43:16;41.85;;;12.55;;
29314;SDS011;16320;53.954;9.506;2023-07-02T06:46:20;43.22;;;11.88;;
29314;SDS011;16320;53.954;9.506;2023-07-02T06:49:25;49.50;;;12.23;;
29314;SDS011;16320;53.954;9.506;2023-07-02T06:52:30;45.50;;;11.77;;
29314;SDS011;16320;53.954;9.506;2023-07-02T06:55:34;40.83;;;11.48;;
29314;SDS011;16320;53.954;9.506;2023-07-02T06:58:39;36.70;;;12.35;;
29314;SDS011;16320;53.954;9.506;2023-07-02T07:01:46;36.42;;;12.98;;
29314;SDS011;16320;53.954;9.506;2023-07-02T07:04:51;41.17;;;13.77;;
29314;SDS011;16320;53.954;9.506;2023-07-02T07:08:04;45.67;;;13.77;;
29314;SDS011;16320;53.954;9.506;2023-07-02T07:11:11;43.92;;;13.85;;
29314;SDS011;16320;53.954;9.506;2023-07-02T07:14:17;53.67;;;15.88;;
29314;SDS011;16320;53.954;9.506;2023-07-02T07:17:21;45.67;;;14.80;;
29314;SDS011;16320;53.954;9.506;2023-07-02T07:20:26;41.47;;;16.73;;
29314;SDS011;16320;53.954;9.506;2023-07-02T07:23:31;65.07;;;16.77;;
29314;SDS011;16320;53.954;9.506;2023-07-02T07:26:36;47.35;;;16.58;;
29314;SDS011;16320;53.954;9.506;2023-07-02T07:29:42;47.33;;;17.75;;
29314;SDS011;16320;53.954;9.506;2023-07-02T07:32:47;58.30;;;18.73;;
29314;SDS011;16320;53.954;9.506;2023-07-02T07:35:55;78.85;;;19.05;;
29314;SDS011;16320;53.954;9.506;2023-07-02T07:39:00;68.88;;;20.80;;
29314;SDS011;16320;53.954;9.506;2023-07-02T07:42:05;68.82;;;19.45;;
29314;SDS011;16320;53.954;9.506;2023-07-02T07:45:11;66.25;;;19.88;;
29314;SDS011;16320;53.954;9.506;2023-07-02T07:48:16;59.72;;;18.70;;
29314;SDS011;16320;53.954;9.506;2023-07-02T07:51:21;61.22;;;18.33;;
29314;SDS011;16320;53.954;9.506;2023-07-02T07:54:26;71.57;;;19.23;;
29314;SDS011;16320;53.954;9.506;2023-07-02T07:57:30;65.38;;;19.17;;
29314;SDS011;16320;53.954;9.506;2023-07-02T08:00:35;67.30;;;20.50;;
29314;SDS011;16320;53.954;9.506;2023-07-02T08:03:40;53.50;;;15.35;;
29314;SDS011;16320;53.954;9.506;2023-07-02T08:06:44;40.42;;;13.35;;
29314;SDS011;16320;53.954;9.506;2023-07-02T08:09:49;36.72;;;9.77;;
29314;SDS011;16320;53.954;9.506;2023-07-02T08:12:54;29.20;;;8.30;;
29314;SDS011;16320;53.954;9.506;2023-07-02T08:15:59;35.60;;;8.43;;
29314;SDS011;16320;53.954;9.506;2023-07-02T08:19:03;29.92;;;6.55;;
29314;SDS011;16320;53.954;9.506;2023-07-02T08:22:08;18.48;;;5.03;;
29314;SDS011;16320;53.954;9.506;2023-07-02T08:25:13;21.88;;;4.22;;
29314;SDS011;16320;53.954;9.506;2023-07-02T08:28:17;20.95;;;4.88;;
29314;SDS011;16320;53.954;9.506;2023-07-02T08:31:22;23.58;;;5.15;;
29314;SDS011;16320;53.954;9.506;2023-07-02T08:34:27;19.27;;;5.05;;
29314;SDS011;16320;53.954;9.506;2023-07-02T08:37:33;23.33;;;5.35;;
29314;SDS011;16320;53.954;9.506;2023-07-02T08:40:39;18.45;;;5.32;;
29314;SDS011;16320;53.954;9.506;2023-07-02T08:43:45;18.77;;;5.28;;
29314;SDS011;16320;53.954;9.506;2023-07-02T08:46:50;18.25;;;5.03;;
29314;SDS011;16320;53.954;9.506;2023-07-02T08:49:56;18.77;;;4.70;;
29314;SDS011;16320;53.954;9.506;2023-07-02T08:53:01;19.55;;;4.68;;
29314;SDS011;16320;53.954;9.506;2023-07-02T08:56:05;27.10;;;4.35;;
29314;SDS011;16320;53.954;9.506;2023-07-02T08:59:09;23.27;;;4.40;;
29314;SDS011;16320;53.954;9.506;2023-07-02T09:02:14;18.83;;;4.63;;
29314;SDS011;16320;53.954;9.506;2023-07-02T09:05:19;13.93;;;4.10;;
29314;SDS011;16320;53.954;9.506;2023-07-02T09:08:27;12.90;;;4.28;;
29314;SDS011;16320;53.954;9.506;2023-07-02T09:11:32;19.30;;;3.85;;
29314;SDS011;16320;53.954;9.506;2023-07-02T09:14:40;12.10;;;3.83;;
29314;SDS011;16320;53.954;9.506;2023-07-02T09:21:22;19.45;;;4.68;;
29314;SDS011;16320;53.954;9.506;2023-07-02T09:24:26;16.63;;;3.65;;
29314;SDS011;16320;53.954;9.506;2023-07-02T09:27:37;15.70;;;3.90;;
29314;SDS011;16320;53.954;9.506;2023-07-02T09:30:50;14.55;;;3.97;;
29314;SDS011;16320;53.954;9.506;2023-07-02T09:34:01;17.60;;;3.67;;
29314;SDS011;16320;53.954;9.506;2023-07-02T09:37:06;12.70;;;2.25;;
29314;SDS011;16320;53.954;9.506;2023-07-02T09:40:11;19.27;;;3.28;;
29314;SDS011;16320;53.954;9.506;2023-07-02T09:43:16;15.00;;;3.33;;
29314;SDS011;16320;53.954;9.506;2023-07-02T09:46:22;34.25;;;4.63;;
29314;SDS011;16320;53.954;9.506;2023-07-02T09:49:27;18.35;;;4.25;;
29314;SDS011;16320;53.954;9.506;2023-07-02T09:52:35;16.45;;;3.70;;
29314;SDS011;16320;53.954;9.506;2023-07-02T09:55:41;18.00;;;3.80;;
29314;SDS011;16320;53.954;9.506;2023-07-02T09:58:46;16.77;;;3.75;;
29314;SDS011;16320;53.954;9.506;2023-07-02T10:01:51;21.05;;;3.33;;
29314;SDS011;16320;53.954;9.506;2023-07-02T10:04:56;18.98;;;3.10;;
29314;SDS011;16320;53.954;9.506;2023-07-02T10:08:11;21.55;;;3.85;;
29314;SDS011;16320;53.954;9.506;2023-07-02T10:11:17;20.05;;;4.18;;
29314;SDS011;16320;53.954;9.506;2023-07-02T10:14:22;20.05;;;3.25;;
29314;SDS011;16320;53.954;9.506;2023-07-02T10:17:34;18.15;;;3.05;;
29314;SDS011;16320;53.954;9.506;2023-07-02T10:20:41;13.25;;;3.17;;
29314;SDS011;16320;53.954;9.506;2023-07-02T10:23:45;17.90;;;3.50;;
29314;SDS011;16320;53.954;9.506;2023-07-02T10:26:51;19.42;;;3.63;;
29314;SDS011;16320;53.954;9.506;2023-07-02T10:30:02;18.77;;;3.20;;
29314;SDS011;16320;53.954;9.506;2023-07-02T10:33:11;17.58;;;4.38;;
29314;SDS011;16320;53.954;9.506;2023-07-02T10:36:18;21.52;;;3.88;;
29314;SDS011;16320;53.954;9.506;2023-07-02T10:39:24;16.95;;;3.67;;
29314;SDS011;16320;53.954;9.506;2023-07-02T10:42:30;15.82;;;2.92;;
29314;SDS011;16320;53.954;9.506;2023-07-02T10:45:36;19.58;;;3.30;;
29314;SDS011;16320;53.954;9.506;2023-07-02T10:48:50;14.38;;;3.22;;
29314;SDS011;16320;53.954;9.506;2023-07-02T10:52:02;13.63;;;3.38;;
29314;SDS011;16320;53.954;9.506;2023-07-02T10:55:21;18.92;;;2.65;;
29314;SDS011;16320;53.954;9.506;2023-07-02T10:58:28;22.27;;;4.70;;
29314;SDS011;16320;53.954;9.506;2023-07-02T11:01:33;13.82;;;3.10;;
29314;SDS011;16320;53.954;9.506;2023-07-02T11:04:37;12.15;;;2.70;;
29314;SDS011;16320;53.954;9.506;2023-07-02T11:07:42;20.05;;;2.97;;
29314;SDS011;16320;53.954;9.506;2023-07-02T11:10:47;14.82;;;3.03;;
29314;SDS011;16320;53.954;9.506;2023-07-02T11:13:52;10.77;;;3.15;;
29314;SDS011;16320;53.954;9.506;2023-07-02T11:17:00;12.55;;;2.70;;
29314;SDS011;16320;53.954;9.506;2023-07-02T11:20:10;14.00;;;3.13;;
29314;SDS011;16320;53.954;9.506;2023-07-02T11:26:38;17.83;;;3.25;;
29314;SDS011;16320;53.954;9.506;2023-07-02T11:29:44;13.80;;;3.05;;
29314;SDS011;16320;53.954;9.506;2023-07-02T11:35:54;13.73;;;2.88;;
29314;SDS011;16320;53.954;9.506;2023-07-02T11:38:59;16.27;;;3.00;;
29314;SDS011;16320;53.954;9.506;2023-07-02T11:42:04;12.32;;;2.67;;
29314;SDS011;16320;53.954;9.506;2023-07-02T11:45:09;11.88;;;3.05;;
29314;SDS011;16320;53.954;9.506;2023-07-02T11:48:14;15.18;;;3.22;;
29314;SDS011;16320;53.954;9.506;2023-07-02T11:51:19;17.13;;;3.10;;
29314;SDS011;16320;53.954;9.506;2023-07-02T11:54:23;9.65;;;2.70;;
29314;SDS011;16320;53.954;9.506;2023-07-02T11:57:28;16.63;;;3.33;;
29314;SDS011;16320;53.954;9.506;2023-07-02T12:00:33;14.05;;;3.70;;
29314;SDS011;16320;53.954;9.506;2023-07-02T12:03:37;18.67;;;3.22;;
29314;SDS011;16320;53.954;9.506;2023-07-02T12:06:42;15.00;;;3.05;;
29314;SDS011;16320;53.954;9.506;2023-07-02T12:09:46;15.57;;;2.60;;
29314;SDS011;16320;53.954;9.506;2023-07-02T12:12:51;20.92;;;3.05;;
29314;SDS011;16320;53.954;9.506;2023-07-02T12:15:55;15.60;;;2.95;;
29314;SDS011;16320;53.954;9.506;2023-07-02T12:19:00;16.08;;;2.55;;
29314;SDS011;16320;53.954;9.506;2023-07-02T12:22:04;14.40;;;2.60;;
29314;SDS011;16320;53.954;9.506;2023-07-02T12:25:09;15.32;;;3.38;;
29314;SDS011;16320;53.954;9.506;2023-07-02T12:28:14;11.23;;;2.83;;
29314;SDS011;16320;53.954;9.506;2023-07-02T12:31:19;17.27;;;3.47;;
29314;SDS011;16320;53.954;9.506;2023-07-02T12:34:23;13.40;;;3.10;;
29314;SDS011;16320;53.954;9.506;2023-07-02T12:37:27;19.52;;;3.50;;
29314;SDS011;16320;53.954;9.506;2023-07-02T12:40:31;11.60;;;2.70;;
29314;SDS011;16320;53.954;9.506;2023-07-02T12:43:36;10.38;;;2.63;;
29314;SDS011;16320;53.954;9.506;2023-07-02T12:46:41;11.23;;;2.15;;
29314;SDS011;16320;53.954;9.506;2023-07-02T12:49:45;10.68;;;2.15;;
29314;SDS011;16320;53.954;9.506;2023-07-02T12:52:50;15.07;;;2.90;;
29314;SDS011;16320;53.954;9.506;2023-07-02T12:55:54;14.38;;;2.10;;
29314;SDS011;16320;53.954;9.506;2023-07-02T12:58:59;10.77;;;1.70;;
29314;SDS011;16320;53.954;9.506;2023-07-02T13:02:06;9.52;;;2.20;;
29314;SDS011;16320;53.954;9.506;2023-07-02T13:05:11;10.27;;;2.72;;
29314;SDS011;16320;53.954;9.506;2023-07-02T13:08:17;18.00;;;2.40;;
29314;SDS011;16320;53.954;9.506;2023-07-02T13:11:21;11.95;;;2.15;;
29314;SDS011;16320;53.954;9.506;2023-07-02T13:14:26;11.20;;;2.35;;
29314;SDS011;16320;53.954;9.506;2023-07-02T13:17:30;6.70;;;1.90;;
29314;SDS011;16320;53.954;9.506;2023-07-02T13:20:34;12.60;;;2.20;;
29314;SDS011;16320;53.954;9.506;2023-07-02T13:23:39;13.32;;;2.38;;
29314;SDS011;16320;53.954;9.506;2023-07-02T13:26:43;11.60;;;2.63;;
29314;SDS011;16320;53.954;9.506;2023-07-02T13:29:48;8.98;;;2.78;;
29314;SDS011;16320;53.954;9.506;2023-07-02T13:32:53;17.25;;;3.03;;
29314;SDS011;16320;53.954;9.506;2023-07-02T13:35:58;18.67;;;3.13;;
29314;SDS011;16320;53.954;9.506;2023-07-02T13:39:02;11.05;;;2.10;;
29314;SDS011;16320;53.954;9.506;2023-07-02T13:42:07;14.60;;;2.15;;
29314;SDS011;16320;53.954;9.506;2023-07-02T13:45:11;16.23;;;2.95;;
29314;SDS011;16320;53.954;9.506;2023-07-02T13:48:16;12.68;;;2.60;;
29314;SDS011;16320;53.954;9.506;2023-07-02T13:51:20;11.20;;;2.45;;
29314;SDS011;16320;53.954;9.506;2023-07-02T13:54:25;15.02;;;2.75;;
29314;SDS011;16320;53.954;9.506;2023-07-02T13:57:29;9.88;;;2.65;;
29314;SDS011;16320;53.954;9.506;2023-07-02T14:00:34;17.35;;;2.38;;
29314;SDS011;16320;53.954;9.506;2023-07-02T14:03:38;11.48;;;2.35;;
29314;SDS011;16320;53.954;9.506;2023-07-02T14:06:43;10.05;;;3.15;;
29314;SDS011;16320;53.954;9.506;2023-07-02T14:09:48;23.77;;;3.33;;
29314;SDS011;16320;53.954;9.506;2023-07-02T14:12:53;16.67;;;3.20;;
29314;SDS011;16320;53.954;9.506;2023-07-02T14:15:58;15.25;;;2.53;;
29314;SDS011;16320;53.954;9.506;2023-07-02T14:19:03;20.70;;;3.58;;
29314;SDS011;16320;53.954;9.506;2023-07-02T14:22:08;12.15;;;1.95;;
29314;SDS011;16320;53.954;9.506;2023-07-02T14:25:12;15.43;;;2.65;;
29314;SDS011;16320;53.954;9.506;2023-07-02T14:28:27;12.20;;;2.45;;
29314;SDS011;16320;53.954;9.506;2023-07-02T14:31:33;13.40;;;2.28;;
29314;SDS011;16320;53.954;9.506;2023-07-02T14:34:37;18.73;;;2.55;;
29314;SDS011;16320;53.954;9.506;2023-07-02T14:37:42;15.30;;;2.90;;
29314;SDS011;16320;53.954;9.506;2023-07-02T14:40:49;15.30;;;3.08;;
29314;SDS011;16320;53.954;9.506;2023-07-02T14:43:54;13.98;;;2.53;;
29314;SDS011;16320;53.954;9.506;2023-07-02T14:46:59;11.63;;;2.70;;
29314;SDS011;16320;53.954;9.506;2023-07-02T14:50:04;6.95;;;2.03;;
29314;SDS011;16320;53.954;9.506;2023-07-02T14:53:09;13.63;;;2.08;;
29314;SDS011;16320;53.954;9.506;2023-07-02T14:56:16;14.27;;;2.55;;
29314;SDS011;16320;53.954;9.506;2023-07-02T14:59:22;13.00;;;2.40;;
29314;SDS011;16320;53.954;9.506;2023-07-02T15:02:26;12.98;;;2.22;;
29314;SDS011;16320;53.954;9.506;2023-07-02T15:05:31;14.18;;;2.55;;
29314;SDS011;16320;53.954;9.506;2023-07-02T15:08:36;12.82;;;2.85;;
29314;SDS011;16320;53.954;9.506;2023-07-02T15:11:40;13.85;;;2.72;;
29314;SDS011;16320;53.954;9.506;2023-07-02T15:14:45;18.00;;;3.55;;
29314;SDS011;16320;53.954;9.506;2023-07-02T15:17:49;14.35;;;2.67;;
29314;SDS011;16320;53.954;9.506;2023-07-02T15:20:56;19.60;;;3.33;;
29314;SDS011;16320;53.954;9.506;2023-07-02T15:24:01;14.93;;;3.58;;
29314;SDS011;16320;53.954;9.506;2023-07-02T15:27:05;15.60;;;3.17;;
29314;SDS011;16320;53.954;9.506;2023-07-02T15:30:14;17.45;;;3.78;;
29314;SDS011;16320;53.954;9.506;2023-07-02T15:33:19;11.43;;;3.22;;
29314;SDS011;16320;53.954;9.506;2023-07-02T15:36:28;13.25;;;3.03;;
29314;SDS011;16320;53.954;9.506;2023-07-02T15:39:39;11.13;;;3.35;;
29314;SDS011;16320;53.954;9.506;2023-07-02T15:45:47;10.32;;;3.25;;
29314;SDS011;16320;53.954;9.506;2023-07-02T15:48:57;11.52;;;2.97;;
29314;SDS011;16320;53.954;9.506;2023-07-02T15:52:07;15.48;;;3.10;;
29314;SDS011;16320;53.954;9.506;2023-07-02T15:55:12;13.13;;;3.47;;
29314;SDS011;16320;53.954;9.506;2023-07-02T15:58:17;15.43;;;3.72;;
29314;SDS011;16320;53.954;9.506;2023-07-02T16:01:22;17.88;;;3.35;;
29314;SDS011;16320;53.954;9.506;2023-07-02T16:04:27;11.18;;;3.25;;
29314;SDS011;16320;53.954;9.506;2023-07-02T16:07:38;15.48;;;3.95;;
29314;SDS011;16320;53.954;9.506;2023-07-02T16:10:44;17.60;;;3.28;;
29314;SDS011;16320;53.954;9.506;2023-07-02T16:13:50;10.27;;;3.42;;
29314;SDS011;16320;53.954;9.506;2023-07-02T16:17:07;10.82;;;3.10;;
29314;SDS011;16320;53.954;9.506;2023-07-02T16:20:13;9.52;;;2.88;;
29314;SDS011;16320;53.954;9.506;2023-07-02T16:23:18;15.30;;;3.08;;
29314;SDS011;16320;53.954;9.506;2023-07-02T16:26:22;17.02;;;3.47;;
29314;SDS011;16320;53.954;9.506;2023-07-02T16:29:28;19.17;;;3.60;;
29314;SDS011;16320;53.954;9.506;2023-07-02T16:32:34;13.25;;;3.50;;
29314;SDS011;16320;53.954;9.506;2023-07-02T16:35:38;13.77;;;3.17;;
29314;SDS011;16320;53.954;9.506;2023-07-02T16:38:43;11.75;;;2.90;;
29314;SDS011;16320;53.954;9.506;2023-07-02T16:41:48;11.07;;;2.75;;
29314;SDS011;16320;53.954;9.506;2023-07-02T16:44:53;16.90;;;3.47;;
29314;SDS011;16320;53.954;9.506;2023-07-02T16:47:57;13.30;;;3.58;;
29314;SDS011;16320;53.954;9.506;2023-07-02T16:51:03;13.52;;;3.72;;
29314;SDS011;16320;53.954;9.506;2023-07-02T16:54:10;18.42;;;3.60;;
29314;SDS011;16320;53.954;9.506;2023-07-02T16:57:20;15.32;;;4.15;;
29314;SDS011;16320;53.954;9.506;2023-07-02T17:00:25;15.43;;;3.42;;
29314;SDS011;16320;53.954;9.506;2023-07-02T17:03:30;15.82;;;3.67;;
29314;SDS011;16320;53.954;9.506;2023-07-02T17:06:36;11.63;;;2.97;;
29314;SDS011;16320;53.954;9.506;2023-07-02T17:09:42;22.25;;;3.92;;
29314;SDS011;16320;53.954;9.506;2023-07-02T17:12:49;19.80;;;4.55;;
29314;SDS011;16320;53.954;9.506;2023-07-02T17:15:54;23.23;;;4.38;;
29314;SDS011;16320;53.954;9.506;2023-07-02T17:18:59;14.07;;;3.85;;
29314;SDS011;16320;53.954;9.506;2023-07-02T17:22:04;13.48;;;3.60;;
29314;SDS011;16320;53.954;9.506;2023-07-02T17:25:10;12.40;;;4.13;;
29314;SDS011;16320;53.954;9.506;2023-07-02T17:28:15;10.55;;;4.15;;
29314;SDS011;16320;53.954;9.506;2023-07-02T17:31:21;18.50;;;4.40;;
29314;SDS011;16320;53.954;9.506;2023-07-02T17:34:27;15.15;;;3.80;;
29314;SDS011;16320;53.954;9.506;2023-07-02T17:37:33;12.27;;;3.63;;
29314;SDS011;16320;53.954;9.506;2023-07-02T17:40:39;14.82;;;4.22;;
29314;SDS011;16320;53.954;9.506;2023-07-02T17:43:45;14.52;;;3.80;;
29314;SDS011;16320;53.954;9.506;2023-07-02T17:47:09;14.15;;;3.50;;
29314;SDS011;16320;53.954;9.506;2023-07-02T17:50:16;14.13;;;3.42;;
29314;SDS011;16320;53.954;9.506;2023-07-02T17:53:22;20.75;;;4.35;;
29314;SDS011;16320;53.954;9.506;2023-07-02T17:56:28;14.93;;;4.00;;
29314;SDS011;16320;53.954;9.506;2023-07-02T17:59:33;21.52;;;3.72;;
29314;SDS011;16320;53.954;9.506;2023-07-02T18:02:40;22.92;;;4.55;;
29314;SDS011;16320;53.954;9.506;2023-07-02T18:05:46;15.52;;;4.13;;
29314;SDS011;16320;53.954;9.506;2023-07-02T18:08:53;14.27;;;3.58;;
29314;SDS011;16320;53.954;9.506;2023-07-02T18:11:57;15.25;;;3.83;;
29314;SDS011;16320;53.954;9.506;2023-07-02T18:15:03;10.68;;;3.40;;
29314;SDS011;16320;53.954;9.506;2023-07-02T18:18:12;14.52;;;4.07;;
29314;SDS011;16320;53.954;9.506;2023-07-02T18:21:17;12.82;;;3.88;;
29314;SDS011;16320;53.954;9.506;2023-07-02T18:24:21;20.38;;;4.50;;
29314;SDS011;16320;53.954;9.506;2023-07-02T18:27:26;19.55;;;4.22;;
29314;SDS011;16320;53.954;9.506;2023-07-02T18:30:31;21.60;;;4.13;;
29314;SDS011;16320;53.954;9.506;2023-07-02T18:33:35;12.77;;;3.35;;
29314;SDS011;16320;53.954;9.506;2023-07-02T18:36:40;13.35;;;3.97;;
29314;SDS011;16320;53.954;9.506;2023-07-02T18:39:48;9.00;;;2.83;;